sensor_id;sensor_type;location;lat;lon;timestamp;pressure;altitude;pressure_sealevel;temperature;humidity
42761;BME280;31672;47.638;19.026;2023-05-10T00:00:58;100355.50;;;11.37;59.36
42761;BME280;31672;47.638;19.026;2023-05-10T00:06:01;100357.50;;;11.35;59.26
42761;BME280;31672;47.638;19.026;2023-05-10T00:11:04;100350.03;;;11.31;59.83
42761;BME280;31672;47.638;19.026;2023-05-10T00:16:07;100343.72;;;11.23;60.14
42761;BME280;31672;47.638;19.026;2023-05-10T00:21:10;100351.69;;;11.15;60.31
42761;BME280;31672;47.638;19.026;2023-05-10T00:26:13;100341.09;;;10.99;60.99
42761;BME280;31672;47.638;19.026;2023-05-10T00:31:16;100341.91;;;10.83;61.95
42761;BME280;31672;47.638;19.026;2023-05-10T00:36:19;100341.41;;;10.63;62.26
42761;BME280;31672;47.638;19.026;2023-05-10T00:41:23;100335.22;;;10.47;63.24
42761;BME280;31672;47.638;19.026;2023-05-10T00:46:26;100341.19;;;10.32;63.75
42761;BME280;31672;47.638;19.026;2023-05-10T00:51:31;100349.44;;;10.21;64.19
42761;BME280;31672;47.638;19.026;2023-05-10T00:56:34;100329.63;;;10.07;64.75
42761;BME280;31672;47.638;19.026;2023-05-10T01:01:38;100337.91;;;9.96;65.07
42761;BME280;31672;47.638;19.026;2023-05-10T01:06:42;100335.00;;;9.81;65.81
42761;BME280;31672;47.638;19.026;2023-05-10T01:11:46;100323.84;;;9.70;66.46
42761;BME280;31672;47.638;19.026;2023-05-10T01:16:50;100330.47;;;9.65;67.04
42761;BME280;31672;47.638;19.026;2023-05-10T01:38:44;100333.41;;;9.28;69.35
42761;BME280;31672;47.638;19.026;2023-05-10T01:44:18;100340.03;;;9.24;70.00
42761;BME280;31672;47.638;19.026;2023-05-10T01:49:29;100331.00;;;9.17;70.10
42761;BME280;31672;47.638;19.026;2023-05-10T01:54:34;100330.34;;;9.15;70.39
42761;BME280;31672;47.638;19.026;2023-05-10T01:59:39;100330.03;;;9.18;70.35
42761;BME280;31672;47.638;19.026;2023-05-10T02:04:45;100319.47;;;9.26;70.56
42761;BME280;31672;47.638;19.026;2023-05-10T02:09:49;100318.84;;;9.32;71.39
42761;BME280;31672;47.638;19.026;2023-05-10T02:14:53;100312.25;;;9.36;71.71
42761;BME280;31672;47.638;19.026;2023-05-10T02:19:59;100310.63;;;9.44;72.37
42761;BME280;31672;47.638;19.026;2023-05-10T02:25:03;100305.69;;;9.49;72.24
42761;BME280;31672;47.638;19.026;2023-05-10T02:30:08;100308.53;;;9.55;72.78
42761;BME280;31672;47.638;19.026;2023-05-10T02:35:12;100301.44;;;9.64;73.25
42761;BME280;31672;47.638;19.026;2023-05-10T02:40:16;100305.78;;;9.73;73.63
42761;BME280;31672;47.638;19.026;2023-05-10T02:45:25;100310.47;;;9.79;73.90
42761;BME280;31672;47.638;19.026;2023-05-10T02:50:33;100307.63;;;9.81;73.67
42761;BME280;31672;47.638;19.026;2023-05-10T02:55:40;100309.00;;;9.85;74.03
42761;BME280;31672;47.638;19.026;2023-05-10T03:00:44;100312.84;;;9.90;73.89
42761;BME280;31672;47.638;19.026;2023-05-10T03:05:48;100307.53;;;9.90;73.29
42761;BME280;31672;47.638;19.026;2023-05-10T03:16:56;100313.78;;;9.89;72.86
42761;BME280;31672;47.638;19.026;2023-05-10T03:22:06;100305.16;;;9.87;72.87
42761;BME280;31672;47.638;19.026;2023-05-10T03:27:11;100303.88;;;9.91;73.38
42761;BME280;31672;47.638;19.026;2023-05-10T03:32:17;100312.84;;;9.90;73.15
42761;BME280;31672;47.638;19.026;2023-05-10T03:37:20;100308.50;;;9.89;73.49
42761;BME280;31672;47.638;19.026;2023-05-10T03:42:23;100310.81;;;9.84;74.56
42761;BME280;31672;47.638;19.026;2023-05-10T03:47:26;100315.44;;;9.82;74.49
42761;BME280;31672;47.638;19.026;2023-05-10T03:52:29;100307.63;;;9.81;75.04
42761;BME280;31672;47.638;19.026;2023-05-10T03:57:33;100319.09;;;9.81;74.94
42761;BME280;31672;47.638;19.026;2023-05-10T04:02:36;100316.91;;;9.77;74.91
42761;BME280;31672;47.638;19.026;2023-05-10T04:07:40;100311.41;;;9.70;75.34
42761;BME280;31672;47.638;19.026;2023-05-10T04:12:43;100304.78;;;9.66;76.11
42761;BME280;31672;47.638;19.026;2023-05-10T04:17:46;100310.75;;;9.68;76.34
42761;BME280;31672;47.638;19.026;2023-05-10T04:22:49;100308.09;;;9.68;76.35
42761;BME280;31672;47.638;19.026;2023-05-10T04:27:52;100315.06;;;9.69;76.24
42761;BME280;31672;47.638;19.026;2023-05-10T04:32:56;100321.66;;;9.65;76.87
42761;BME280;31672;47.638;19.026;2023-05-10T04:37:59;100325.31;;;9.64;76.98
42761;BME280;31672;47.638;19.026;2023-05-10T04:43:02;100316.53;;;9.63;77.37
42761;BME280;31672;47.638;19.026;2023-05-10T04:48:05;100319.69;;;9.67;77.36
42761;BME280;31672;47.638;19.026;2023-05-10T04:53:08;100316.56;;;9.72;77.66
42761;BME280;31672;47.638;19.026;2023-05-10T04:58:11;100319.09;;;9.81;78.09
42761;BME280;31672;47.638;19.026;2023-05-10T05:03:14;100321.97;;;9.96;78.02
42761;BME280;31672;47.638;19.026;2023-05-10T05:08:18;100313.38;;;10.10;78.24
42761;BME280;31672;47.638;19.026;2023-05-10T05:13:21;100320.44;;;10.28;78.08
42761;BME280;31672;47.638;19.026;2023-05-10T05:18:24;100319.94;;;10.49;78.18
42761;BME280;31672;47.638;19.026;2023-05-10T05:23:27;100326.28;;;10.72;77.32
42761;BME280;31672;47.638;19.026;2023-05-10T05:28:31;100330.94;;;11.03;77.76
42761;BME280;31672;47.638;19.026;2023-05-10T05:33:37;100326.78;;;11.72;74.79
42761;BME280;31672;47.638;19.026;2023-05-10T05:38:40;100327.13;;;11.77;73.54
42761;BME280;31672;47.638;19.026;2023-05-10T05:43:43;100332.06;;;11.80;73.67
42761;BME280;31672;47.638;19.026;2023-05-10T05:48:46;100329.59;;;11.87;73.65
42761;BME280;31672;47.638;19.026;2023-05-10T05:53:49;100339.06;;;11.89;73.00
42761;BME280;31672;47.638;19.026;2023-05-10T05:58:52;100342.75;;;11.88;73.08
42761;BME280;31672;47.638;19.026;2023-05-10T06:03:55;100349.66;;;12.05;73.01
42761;BME280;31672;47.638;19.026;2023-05-10T06:08:58;100342.88;;;12.26;73.14
42761;BME280;31672;47.638;19.026;2023-05-10T06:14:03;100340.41;;;12.47;71.55
42761;BME280;31672;47.638;19.026;2023-05-10T06:19:10;100343.69;;;12.80;70.85
42761;BME280;31672;47.638;19.026;2023-05-10T06:24:13;100329.81;;;13.08;68.96
42761;BME280;31672;47.638;19.026;2023-05-10T06:29:16;100336.28;;;13.28;65.55
42761;BME280;31672;47.638;19.026;2023-05-10T06:34:19;100340.91;;;13.34;64.72
42761;BME280;31672;47.638;19.026;2023-05-10T06:39:22;100335.66;;;13.41;64.90
42761;BME280;31672;47.638;19.026;2023-05-10T06:44:25;100341.66;;;13.58;64.63
42761;BME280;31672;47.638;19.026;2023-05-10T06:49:28;100332.34;;;13.83;63.47
42761;BME280;31672;47.638;19.026;2023-05-10T06:54:31;100330.22;;;13.93;62.53
42761;BME280;31672;47.638;19.026;2023-05-10T06:59:34;100324.41;;;14.05;61.72
42761;BME280;31672;47.638;19.026;2023-05-10T07:04:39;100327.91;;;14.05;62.36
42761;BME280;31672;47.638;19.026;2023-05-10T07:09:42;100325.59;;;14.02;61.51
42761;BME280;31672;47.638;19.026;2023-05-10T07:14:46;100327.16;;;14.11;61.85
42761;BME280;31672;47.638;19.026;2023-05-10T07:19:49;100332.28;;;14.28;61.77
42761;BME280;31672;47.638;19.026;2023-05-10T07:24:52;100328.25;;;14.53;61.20
42761;BME280;31672;47.638;19.026;2023-05-10T07:29:55;100327.00;;;14.70;59.73
42761;BME280;31672;47.638;19.026;2023-05-10T07:34:59;100319.34;;;14.89;58.83
42761;BME280;31672;47.638;19.026;2023-05-10T07:40:02;100329.25;;;14.95;58.87
42761;BME280;31672;47.638;19.026;2023-05-10T07:45:06;100318.50;;;14.88;58.62
42761;BME280;31672;47.638;19.026;2023-05-10T07:50:09;100324.75;;;14.95;59.42
42761;BME280;31672;47.638;19.026;2023-05-10T07:55:14;100319.16;;;15.18;59.02
42761;BME280;31672;47.638;19.026;2023-05-10T08:00:19;100319.63;;;15.29;57.32
42761;BME280;31672;47.638;19.026;2023-05-10T08:05:22;100322.75;;;15.32;58.12
42761;BME280;31672;47.638;19.026;2023-05-10T08:10:25;100318.47;;;15.38;57.61
42761;BME280;31672;47.638;19.026;2023-05-10T08:15:29;100316.78;;;15.30;57.63
42761;BME280;31672;47.638;19.026;2023-05-10T08:20:32;100316.84;;;15.43;57.77
42761;BME280;31672;47.638;19.026;2023-05-10T08:25:35;100312.75;;;15.47;57.62
42761;BME280;31672;47.638;19.026;2023-05-10T08:30:38;100316.41;;;15.40;56.69
42761;BME280;31672;47.638;19.026;2023-05-10T08:35:42;100312.78;;;15.19;57.78
42761;BME280;31672;47.638;19.026;2023-05-10T08:40:45;100312.28;;;15.09;58.53
42761;BME280;31672;47.638;19.026;2023-05-10T08:45:50;100310.88;;;15.13;58.52
42761;BME280;31672;47.638;19.026;2023-05-10T08:50:54;100306.59;;;15.19;58.39
42761;BME280;31672;47.638;19.026;2023-05-10T08:56:00;100305.84;;;15.32;57.54
42761;BME280;31672;47.638;19.026;2023-05-10T09:01:05;100300.84;;;15.57;57.07
42761;BME280;31672;47.638;19.026;2023-05-10T09:06:08;100304.31;;;15.78;55.84
42761;BME280;31672;47.638;19.026;2023-05-10T09:11:12;100301.63;;;15.78;55.21
42761;BME280;31672;47.638;19.026;2023-05-10T09:16:15;100301.94;;;16.10;55.03
42761;BME280;31672;47.638;19.026;2023-05-10T09:21:24;100310.06;;;16.37;53.62
42761;BME280;31672;47.638;19.026;2023-05-10T09:26:27;100303.69;;;16.51;52.11
42761;BME280;31672;47.638;19.026;2023-05-10T09:31:52;100299.84;;;16.73;52.86
42761;BME280;31672;47.638;19.026;2023-05-10T09:36:59;100302.53;;;16.87;51.64
42761;BME280;31672;47.638;19.026;2023-05-10T09:42:09;100299.03;;;16.79;50.75
42761;BME280;31672;47.638;19.026;2023-05-10T09:47:17;100298.56;;;16.63;51.08
42761;BME280;31672;47.638;19.026;2023-05-10T09:52:21;100287.41;;;16.66;51.39
42761;BME280;31672;47.638;19.026;2023-05-10T09:57:25;100288.47;;;16.71;51.51
42761;BME280;31672;47.638;19.026;2023-05-10T10:02:29;100278.97;;;17.08;49.89
42761;BME280;31672;47.638;19.026;2023-05-10T10:07:32;100271.91;;;17.41;49.28
42761;BME280;31672;47.638;19.026;2023-05-10T10:12:37;100265.25;;;17.43;49.18
42761;BME280;31672;47.638;19.026;2023-05-10T10:17:41;100263.34;;;17.63;48.44
42761;BME280;31672;47.638;19.026;2023-05-10T10:22:47;100261.53;;;17.57;47.11
42761;BME280;31672;47.638;19.026;2023-05-10T10:39:00;100253.59;;;17.82;46.79
42761;BME280;31672;47.638;19.026;2023-05-10T10:55:07;100223.50;;;17.47;46.11
42761;BME280;31672;47.638;19.026;2023-05-10T11:00:44;100229.25;;;18.09;46.36
42761;BME280;31672;47.638;19.026;2023-05-10T11:05:49;100212.06;;;18.41;44.31
42761;BME280;31672;47.638;19.026;2023-05-10T11:16:22;100205.56;;;18.24;42.92
42761;BME280;31672;47.638;19.026;2023-05-10T11:21:34;100201.38;;;17.97;42.61
42761;BME280;31672;47.638;19.026;2023-05-10T11:26:37;100209.81;;;17.62;45.14
42761;BME280;31672;47.638;19.026;2023-05-10T11:31:45;100200.72;;;17.56;45.20
42761;BME280;31672;47.638;19.026;2023-05-10T11:36:56;100201.94;;;17.74;44.83
42761;BME280;31672;47.638;19.026;2023-05-10T11:41:59;100195.69;;;17.80;44.88
42761;BME280;31672;47.638;19.026;2023-05-10T11:47:03;100194.47;;;17.82;45.07
42761;BME280;31672;47.638;19.026;2023-05-10T11:52:07;100193.22;;;18.10;44.95
42761;BME280;31672;47.638;19.026;2023-05-10T11:57:10;100188.72;;;18.04;43.95
42761;BME280;31672;47.638;19.026;2023-05-10T12:02:14;100193.03;;;18.11;44.43
42761;BME280;31672;47.638;19.026;2023-05-10T12:07:17;100183.06;;;18.18;43.60
42761;BME280;31672;47.638;19.026;2023-05-10T12:12:20;100185.69;;;18.25;43.75
42761;BME280;31672;47.638;19.026;2023-05-10T12:17:28;100186.22;;;18.09;43.39
42761;BME280;31672;47.638;19.026;2023-05-10T12:22:33;100171.13;;;18.08;43.36
42761;BME280;31672;47.638;19.026;2023-05-10T12:27:37;100178.16;;;18.09;43.86
42761;BME280;31672;47.638;19.026;2023-05-10T12:32:41;100170.34;;;18.01;43.66
42761;BME280;31672;47.638;19.026;2023-05-10T12:37:45;100168.78;;;17.86;43.63
42761;BME280;31672;47.638;19.026;2023-05-10T12:42:48;100158.88;;;17.80;44.28
42761;BME280;31672;47.638;19.026;2023-05-10T12:47:51;100164.22;;;17.87;43.89
42761;BME280;31672;47.638;19.026;2023-05-10T12:52:54;100158.19;;;17.91;44.03
42761;BME280;31672;47.638;19.026;2023-05-10T12:57:57;100152.19;;;17.96;44.12
42761;BME280;31672;47.638;19.026;2023-05-10T13:03:00;100143.13;;;18.15;44.32
42761;BME280;31672;47.638;19.026;2023-05-10T13:08:04;100141.06;;;18.42;42.62
42761;BME280;31672;47.638;19.026;2023-05-10T13:13:07;100138.22;;;18.37;42.59
42761;BME280;31672;47.638;19.026;2023-05-10T13:18:11;100133.72;;;18.31;42.74
42761;BME280;31672;47.638;19.026;2023-05-10T13:23:13;100131.25;;;18.30;42.78
42761;BME280;31672;47.638;19.026;2023-05-10T13:28:16;100111.72;;;18.34;43.15
42761;BME280;31672;47.638;19.026;2023-05-10T13:33:19;100107.06;;;18.48;42.32
42761;BME280;31672;47.638;19.026;2023-05-10T13:38:22;100101.91;;;18.65;42.48
42761;BME280;31672;47.638;19.026;2023-05-10T13:43:25;100100.03;;;18.72;40.53
42761;BME280;31672;47.638;19.026;2023-05-10T13:48:28;100099.91;;;18.60;39.64
42761;BME280;31672;47.638;19.026;2023-05-10T13:53:31;100097.00;;;18.62;40.16
42761;BME280;31672;47.638;19.026;2023-05-10T13:58:34;100081.63;;;18.87;39.67
42761;BME280;31672;47.638;19.026;2023-05-10T14:03:39;100083.41;;;18.93;39.20
42761;BME280;31672;47.638;19.026;2023-05-10T14:08:42;100075.50;;;18.98;39.91
42761;BME280;31672;47.638;19.026;2023-05-10T14:13:46;100071.81;;;18.93;39.11
42761;BME280;31672;47.638;19.026;2023-05-10T14:18:49;100068.47;;;18.97;40.62
42761;BME280;31672;47.638;19.026;2023-05-10T14:23:52;100069.41;;;19.21;39.29
42761;BME280;31672;47.638;19.026;2023-05-10T14:28:55;100059.00;;;19.07;39.27
42761;BME280;31672;47.638;19.026;2023-05-10T14:33:58;100061.22;;;18.80;39.59
42761;BME280;31672;47.638;19.026;2023-05-10T14:39:01;100065.13;;;18.59;40.36
42761;BME280;31672;47.638;19.026;2023-05-10T14:44:05;100056.38;;;18.45;40.97
42761;BME280;31672;47.638;19.026;2023-05-10T14:49:08;100056.53;;;18.32;41.29
42761;BME280;31672;47.638;19.026;2023-05-10T14:54:11;100054.97;;;18.42;41.08
42761;BME280;31672;47.638;19.026;2023-05-10T14:59:14;100063.22;;;18.48;41.16
42761;BME280;31672;47.638;19.026;2023-05-10T15:04:17;100065.75;;;18.42;40.58
42761;BME280;31672;47.638;19.026;2023-05-10T15:09:21;100060.50;;;18.29;39.90
42761;BME280;31672;47.638;19.026;2023-05-10T15:14:24;100056.84;;;18.17;39.45
42761;BME280;31672;47.638;19.026;2023-05-10T15:19:27;100063.13;;;18.11;39.83
42761;BME280;31672;47.638;19.026;2023-05-10T15:24:31;100055.59;;;18.19;39.31
42761;BME280;31672;47.638;19.026;2023-05-10T15:29:34;100052.81;;;18.51;38.51
42761;BME280;31672;47.638;19.026;2023-05-10T15:34:38;100056.19;;;19.02;38.20
42761;BME280;31672;47.638;19.026;2023-05-10T15:39:41;100056.16;;;19.20;37.79
42761;BME280;31672;47.638;19.026;2023-05-10T15:44:44;100056.34;;;19.37;37.69
42761;BME280;31672;47.638;19.026;2023-05-10T15:49:47;100048.47;;;19.35;37.51
42761;BME280;31672;47.638;19.026;2023-05-10T15:54:50;100061.88;;;18.93;38.45
42761;BME280;31672;47.638;19.026;2023-05-10T15:59:53;100049.88;;;18.53;39.54
42761;BME280;31672;47.638;19.026;2023-05-10T16:04:58;100057.84;;;18.23;40.38
42761;BME280;31672;47.638;19.026;2023-05-10T16:10:01;100051.06;;;17.95;40.90
42761;BME280;31672;47.638;19.026;2023-05-10T16:15:07;100056.75;;;17.80;41.63
42761;BME280;31672;47.638;19.026;2023-05-10T16:20:10;100048.97;;;17.65;42.25
42761;BME280;31672;47.638;19.026;2023-05-10T16:25:13;100055.00;;;17.61;42.96
42761;BME280;31672;47.638;19.026;2023-05-10T16:30:17;100061.66;;;17.58;43.43
42761;BME280;31672;47.638;19.026;2023-05-10T16:35:20;100061.06;;;17.50;43.20
42761;BME280;31672;47.638;19.026;2023-05-10T16:40:25;100052.19;;;17.49;43.70
42761;BME280;31672;47.638;19.026;2023-05-10T16:45:30;100061.09;;;17.43;43.47
42761;BME280;31672;47.638;19.026;2023-05-10T16:50:34;100072.03;;;17.48;44.42
42761;BME280;31672;47.638;19.026;2023-05-10T16:55:37;100068.09;;;17.51;43.68
42761;BME280;31672;47.638;19.026;2023-05-10T17:00:40;100077.81;;;17.52;43.47
42761;BME280;31672;47.638;19.026;2023-05-10T17:05:43;100081.09;;;17.54;43.81
42761;BME280;31672;47.638;19.026;2023-05-10T17:10:46;100081.09;;;17.54;43.59
42761;BME280;31672;47.638;19.026;2023-05-10T17:15:49;100085.47;;;17.48;44.26
42761;BME280;31672;47.638;19.026;2023-05-10T17:20:52;100088.47;;;17.33;44.14
42761;BME280;31672;47.638;19.026;2023-05-10T17:25:55;100095.31;;;17.23;45.16
42761;BME280;31672;47.638;19.026;2023-05-10T17:30:58;100100.53;;;17.11;44.84
42761;BME280;31672;47.638;19.026;2023-05-10T17:36:01;100100.59;;;16.98;45.10
42761;BME280;31672;47.638;19.026;2023-05-10T17:41:07;100095.44;;;16.83;45.16
42761;BME280;31672;47.638;19.026;2023-05-10T17:46:10;100103.97;;;16.73;44.95
42761;BME280;31672;47.638;19.026;2023-05-10T17:51:14;100113.00;;;16.66;45.13
42761;BME280;31672;47.638;19.026;2023-05-10T17:56:17;100118.81;;;16.56;45.03
42761;BME280;31672;47.638;19.026;2023-05-10T18:01:20;100122.13;;;16.45;45.12
42761;BME280;31672;47.638;19.026;2023-05-10T18:06:24;100119.03;;;16.35;45.04
42761;BME280;31672;47.638;19.026;2023-05-10T18:11:27;100115.75;;;16.26;45.22
42761;BME280;31672;47.638;19.026;2023-05-10T18:16:31;100134.91;;;16.16;45.54
42761;BME280;31672;47.638;19.026;2023-05-10T18:21:34;100135.75;;;16.10;45.72
42761;BME280;31672;47.638;19.026;2023-05-10T18:26:37;100135.97;;;16.02;46.44
42761;BME280;31672;47.638;19.026;2023-05-10T18:31:40;100142.09;;;15.89;46.94
42761;BME280;31672;47.638;19.026;2023-05-10T18:36:43;100149.28;;;15.75;47.29
42761;BME280;31672;47.638;19.026;2023-05-10T18:41:46;100153.59;;;15.63;47.89
42761;BME280;31672;47.638;19.026;2023-05-10T18:46:49;100158.88;;;15.50;48.34
42761;BME280;31672;47.638;19.026;2023-05-10T18:51:55;100160.25;;;15.33;48.92
42761;BME280;31672;47.638;19.026;2023-05-10T18:56:58;100172.09;;;15.17;49.88
42761;BME280;31672;47.638;19.026;2023-05-10T19:02:01;100173.28;;;15.01;50.68
42761;BME280;31672;47.638;19.026;2023-05-10T19:07:05;100176.66;;;14.82;51.74
42761;BME280;31672;47.638;19.026;2023-05-10T19:12:07;100180.25;;;14.67;52.22
42761;BME280;31672;47.638;19.026;2023-05-10T19:17:10;100183.88;;;14.53;53.12
42761;BME280;31672;47.638;19.026;2023-05-10T19:22:15;100190.97;;;14.46;53.18
42761;BME280;31672;47.638;19.026;2023-05-10T19:27:21;100181.22;;;14.38;53.70
42761;BME280;31672;47.638;19.026;2023-05-10T19:32:24;100182.19;;;14.31;54.35
42761;BME280;31672;47.638;19.026;2023-05-10T19:37:27;100188.88;;;14.20;54.81
42761;BME280;31672;47.638;19.026;2023-05-10T19:42:30;100188.19;;;14.11;55.23
42761;BME280;31672;47.638;19.026;2023-05-10T19:47:33;100188.31;;;14.03;55.65
42761;BME280;31672;47.638;19.026;2023-05-10T19:52:38;100187.16;;;13.91;56.22
42761;BME280;31672;47.638;19.026;2023-05-10T19:57:40;100181.88;;;13.76;56.85
42761;BME280;31672;47.638;19.026;2023-05-10T20:02:43;100183.19;;;13.65;56.96
42761;BME280;31672;47.638;19.026;2023-05-10T20:07:47;100181.66;;;13.56;57.54
42761;BME280;31672;47.638;19.026;2023-05-10T20:12:51;100180.72;;;13.49;58.09
42761;BME280;31672;47.638;19.026;2023-05-10T20:17:54;100186.19;;;13.41;58.27
42761;BME280;31672;47.638;19.026;2023-05-10T20:22:58;100191.53;;;13.41;58.61
42761;BME280;31672;47.638;19.026;2023-05-10T20:28:01;100188.56;;;13.36;58.91
42761;BME280;31672;47.638;19.026;2023-05-10T20:33:04;100188.31;;;13.31;58.96
42761;BME280;31672;47.638;19.026;2023-05-10T20:38:07;100187.19;;;13.25;59.24
42761;BME280;31672;47.638;19.026;2023-05-10T20:43:10;100187.09;;;13.19;59.25
42761;BME280;31672;47.638;19.026;2023-05-10T20:48:13;100194.09;;;13.20;59.21
42761;BME280;31672;47.638;19.026;2023-05-10T20:53:16;100189.13;;;13.17;58.93
42761;BME280;31672;47.638;19.026;2023-05-10T20:58:20;100192.94;;;13.22;58.96
42761;BME280;31672;47.638;19.026;2023-05-10T21:03:23;100188.78;;;13.20;58.87
42761;BME280;31672;47.638;19.026;2023-05-10T21:08:26;100175.78;;;13.17;58.85
42761;BME280;31672;47.638;19.026;2023-05-10T21:13:30;100181.13;;;13.17;58.68
42761;BME280;31672;47.638;19.026;2023-05-10T21:18:33;100182.78;;;13.18;59.01
42761;BME280;31672;47.638;19.026;2023-05-10T21:23:36;100178.63;;;13.15;58.91
42761;BME280;31672;47.638;19.026;2023-05-10T21:28:39;100182.50;;;13.12;58.88
42761;BME280;31672;47.638;19.026;2023-05-10T21:33:44;100175.88;;;13.08;59.12
42761;BME280;31672;47.638;19.026;2023-05-10T21:38:48;100180.00;;;13.11;59.22
42761;BME280;31672;47.638;19.026;2023-05-10T21:43:52;100178.16;;;13.11;59.25
42761;BME280;31672;47.638;19.026;2023-05-10T21:48:55;100181.56;;;13.05;59.50
42761;BME280;31672;47.638;19.026;2023-05-10T21:53:59;100182.03;;;13.09;59.20
42761;BME280;31672;47.638;19.026;2023-05-10T21:59:03;100182.88;;;13.09;59.67
42761;BME280;31672;47.638;19.026;2023-05-10T22:04:06;100189.78;;;13.04;59.88
42761;BME280;31672;47.638;19.026;2023-05-10T22:09:09;100187.09;;;13.04;59.93
42761;BME280;31672;47.638;19.026;2023-05-10T22:14:12;100181.56;;;13.05;59.77
42761;BME280;31672;47.638;19.026;2023-05-10T22:19:15;100197.59;;;13.05;59.53
42761;BME280;31672;47.638;19.026;2023-05-10T22:24:18;100187.94;;;13.04;59.73
42761;BME280;31672;47.638;19.026;2023-05-10T22:29:22;100189.56;;;13.05;59.57
42761;BME280;31672;47.638;19.026;2023-05-10T22:34:25;100187.09;;;13.04;59.59
42761;BME280;31672;47.638;19.026;2023-05-10T22:39:28;100188.56;;;13.06;59.58
42761;BME280;31672;47.638;19.026;2023-05-10T22:44:31;100190.41;;;13.06;59.48
42761;BME280;31672;47.638;19.026;2023-05-10T22:49:34;100198.25;;;13.07;59.02
42761;BME280;31672;47.638;19.026;2023-05-10T22:54:37;100201.00;;;13.14;59.02
42761;BME280;31672;47.638;19.026;2023-05-10T22:59:41;100191.50;;;13.11;59.18
42761;BME280;31672;47.638;19.026;2023-05-10T23:04:43;100197.22;;;13.08;59.28
42761;BME280;31672;47.638;19.026;2023-05-10T23:09:47;100195.09;;;13.04;59.54
42761;BME280;31672;47.638;19.026;2023-05-10T23:14:50;100184.34;;;12.97;59.45
42761;BME280;31672;47.638;19.026;2023-05-10T23:19:53;100197.22;;;12.94;59.42
42761;BME280;31672;47.638;19.026;2023-05-10T23:24:57;100195.19;;;12.81;59.42
42761;BME280;31672;47.638;19.026;2023-05-10T23:30:00;100194.78;;;12.69;59.57
42761;BME280;31672;47.638;19.026;2023-05-10T23:35:05;100196.63;;;12.54;59.92
42761;BME280;31672;47.638;19.026;2023-05-10T23:40:10;100202.38;;;12.43;60.81
42761;BME280;31672;47.638;19.026;2023-05-10T23:45:13;100205.66;;;12.30;61.38
42761;BME280;31672;47.638;19.026;2023-05-10T23:50:16;100211.69;;;12.24;61.84
42761;BME280;31672;47.638;19.026;2023-05-10T23:55:20;100205.25;;;12.18;61.80
